Погода Кловисна неделю

Калифорния, США

01 - 07 сентября
  • 01сентября
    Сегодня
    +14°
    +29°
    Ясно и безоблачно
    ВремяПогодаТемператураВлажностьДавлениеВетер, м/сВероятность осадков
    02:00Небольшая облачность+18°C60 %750 мм4.5 м/с2 %
    05:00Ясно и безоблачно+16°C65 %750 мм2.6 м/с2 %
    08:00Ясно и безоблачно+16°C64 %752 мм2.8 м/с2 %
    11:00Ясно и безоблачно+21°C47 %752 мм3.2 м/с2 %
    14:00Ясно и безоблачно+26°C30 %751 мм2.1 м/с2 %
    17:00Ясно и безоблачно+28°C22 %749 мм1.8 м/с2 %
    20:00Ясно и безоблачно+25°C29 %750 мм4.1 м/с2 %
    23:00Ясно и безоблачно+20°C50 %751 мм5.9 м/с2 %
  • 02сентября
    Среда
    +15°
    +29°
    Ясно и безоблачно
    ВремяПогодаТемператураВлажностьДавлениеВетер, м/сВероятность осадков
    02:00Ясно и безоблачно+17°C57 %752 мм4.5 м/с2 %
    05:00Ясно и безоблачно+15°C64 %752 мм2.8 м/с2 %
    08:00Практически безоблачно+16°C63 %753 мм1.1 м/с2 %
    11:00Ясно и безоблачно+21°C45 %753 мм2.1 м/с2 %
    14:00Ясно и безоблачно+26°C30 %752 мм2.2 м/с2 %
    17:00Практически безоблачно+28°C24 %750 мм3.0 м/с2 %
    20:00Ясно и безоблачно+26°C30 %750 мм4.0 м/с2 %
    23:00Ясно и безоблачно+21°C50 %751 мм5.2 м/с2 %
  • 03сентября
    Четверг
    +16°
    +29°
    Ясно и безоблачно
    ВремяПогодаТемператураВлажностьДавлениеВетер, м/сВероятность осадков
    02:00Ясно и безоблачно+19°C64 %751 мм4.9 м/с2 %
    05:00Ясно и безоблачно+17°C69 %751 мм3.6 м/с2 %
    08:00Ясно и безоблачно+17°C65 %751 мм2.2 м/с2 %
    11:00Ясно и безоблачно+23°C45 %751 мм1.9 м/с2 %
    14:00Ясно и безоблачно+28°C30 %749 мм2.4 м/с2 %
    17:00Ясно и безоблачно+29°C24 %747 мм2.7 м/с2 %
    20:00Ясно и безоблачно+27°C32 %747 мм5.5 м/с2 %
    23:00Ясно и безоблачно+22°C55 %748 мм5.9 м/с2 %
  • 04сентября
    Пятница
    +16°
    +29°
    Ясно и безоблачно
    ВремяПогодаТемператураВлажностьДавлениеВетер, м/сВероятность осадков
    02:00Ясно и безоблачно+19°C68 %748 мм4.8 м/с2 %
    05:00Ясно и безоблачно+17°C76 %749 мм3.4 м/с2 %
    08:00Ясно и безоблачно+17°C63 %750 мм2.2 м/с2 %
    11:00Ясно и безоблачно+22°C47 %750 мм2.5 м/с2 %
    14:00Ясно и безоблачно+27°C34 %749 мм2.0 м/с2 %
    17:00Ясно и безоблачно+29°C28 %748 мм1.4 м/с2 %
    20:00Ясно и безоблачно+27°C39 %748 мм3.3 м/с2 %
    23:00Ясно и безоблачно+23°C46 %749 мм4.5 м/с2 %
  • 05сентября
    Суббота
    +16°
    +31°
    Ясно и безоблачно
    ВремяПогодаТемператураВлажностьДавлениеВетер, м/сВероятность осадков
    02:00Ясно и безоблачно+19°C51 %749 мм4.3 м/с2 %
    05:00Ясно и безоблачно+17°C59 %750 мм2.4 м/с2 %
    08:00Ясно и безоблачно+17°C58 %751 мм0.8 м/с2 %
    11:00Ясно и безоблачно+23°C43 %751 мм1.4 м/с2 %
    14:00Ясно и безоблачно+28°C30 %750 мм1.9 м/с2 %
    17:00Ясно и безоблачно+31°C23 %748 мм1.4 м/с2 %
    20:00Ясно и безоблачно+29°C29 %748 мм2.4 м/с2 %
    23:00Ясно и безоблачно+24°C39 %749 мм3.8 м/с2 %
  • 06сентября
    Воскресенье
    +17°
    +32°
    Ясно и безоблачно
    ВремяПогодаТемператураВлажностьДавлениеВетер, м/сВероятность осадков
    05:00Ясно и безоблачно+18°C57 %750 мм1.7 м/с20 %
    11:00Ясно и безоблачно+23°C39 %751 мм2.0 м/с26 %
    17:00Ясно и безоблачно+31°C19 %749 мм2.0 м/с23 %
    23:00Ясно и безоблачно+23°C39 %750 мм2.9 м/с17 %
  • 07сентября
    Понедельник
    +17°
    +33°
    Ясно и безоблачно
    ВремяПогодаТемператураВлажностьДавлениеВетер, м/сВероятность осадков
    05:00Ясно и безоблачно+18°C62 %750 мм2.0 м/с17 %
    11:00Ясно и безоблачно+26°C36 %751 мм1.8 м/с19 %
    17:00Ясно и безоблачно+32°C20 %749 мм3.1 м/с15 %
    23:00Ясно и безоблачно+23°C35 %749 мм2.6 м/с10 %
Мы используем cookies
Соглашаюсь